Time;durP1;ratioP1;P1;durP2;ratioP2;P2;SDS_P1;SDS_P2;PMS_P1;PMS_P2;Temp;Humidity;BMP_temperature;BMP_pressure;BME280_temperature;BME280_humidity;BME280_pressure;Samples;Min_cycle;Max_cycle;Signal;HPM_P1;HPM_P2
2023/08/14 00:00:09;;;;;;;;;15.33;12.33;;;;;18.86;100.00;101347.50;5081036;27;57032;-77
2023/08/14 00:02:35;;;;;;;;;12.67;12.67;;;;;18.87;100.00;101349.22;5083319;27;45323;-77
2023/08/14 00:05:00;;;;;;;;;11.33;11.33;;;;;18.80;100.00;101336.34;5094444;27;45463;-77
2023/08/14 00:07:25;;;;;;;;;13.33;10.33;;;;;18.73;100.00;101327.91;5087840;27;48302;-76
2023/08/14 00:09:51;;;;;;;;;17.00;13.00;;;;;18.77;100.00;101332.09;5084444;27;45333;-77
2023/08/14 00:12:16;;;;;;;;;17.33;14.33;;;;;18.79;100.00;101334.63;5096914;27;45276;-77
2023/08/14 00:14:41;;;;;;;;;13.33;13.33;;;;;18.70;100.00;101339.72;5085911;27;45640;-76
2023/08/14 00:17:07;;;;;;;;;16.33;11.33;;;;;18.68;100.00;101338.94;5080191;27;45434;-77
2023/08/14 00:19:32;;;;;;;;;11.67;9.67;;;;;18.71;100.00;101346.78;5079448;27;45490;-76
2023/08/14 00:21:57;;;;;;;;;14.67;13.33;;;;;18.65;100.00;101336.50;5070405;28;45282;-77
2023/08/14 00:24:22;;;;;;;;;19.00;13.67;;;;;18.61;100.00;101320.78;5094922;27;49615;-76
2023/08/14 00:26:48;;;;;;;;;13.00;13.00;;;;;18.63;100.00;101329.53;5093960;27;51723;-77
2023/08/14 00:29:13;;;;;;;;;13.00;13.00;;;;;18.62;100.00;101327.81;5090595;27;45386;-77
2023/08/14 00:31:38;;;;;;;;;16.00;14.00;;;;;18.60;100.00;101332.44;5080974;27;45537;-77
2023/08/14 00:34:04;;;;;;;;;15.00;13.33;;;;;18.49;100.00;101313.56;5088909;27;45394;-76
2023/08/14 00:36:29;;;;;;;;;10.67;7.00;;;;;18.50;100.00;101310.81;5085213;27;45264;-77
2023/08/14 00:38:55;;;;;;;;;13.67;12.67;;;;;18.57;100.00;101316.59;5083447;27;45434;-77
2023/08/14 00:41:20;;;;;;;;;11.00;11.00;;;;;18.55;100.00;101321.22;5081576;27;47881;-77
2023/08/14 00:43:46;;;;;;;;;13.00;13.00;;;;;18.52;100.00;101308.03;5067323;27;45438;-77
2023/08/14 00:46:12;;;;;;;;;3.00;2.00;;;;;18.43;100.00;101284.53;5089750;27;45475;-76
2023/08/14 00:48:37;;;;;;;;;14.33;13.67;;;;;18.51;100.00;101300.97;5084272;27;45459;-77
2023/08/14 00:51:03;;;;;;;;;12.67;12.33;;;;;18.44;100.00;101300.53;5090168;27;45430;-76
2023/08/14 00:53:30;;;;;;;;;15.33;12.00;;;;;18.47;100.00;101311.00;5094332;27;45358;-77
2023/08/14 00:55:57;;;;;;;;;13.00;12.67;;;;;18.41;100.00;101297.19;5073689;27;45570;-77
2023/08/14 00:58:23;;;;;;;;;15.33;12.00;;;;;18.42;100.00;101297.06;5097541;27;46283;-76
2023/08/14 01:00:49;;;;;;;;;15.00;12.67;;;;;18.38;100.00;101289.38;5083270;27;45562;-76
2023/08/14 01:03:16;;;;;;;;;13.33;12.00;;;;;18.43;100.00;101298.78;5081506;27;45548;-76
2023/08/14 01:05:41;;;;;;;;;11.67;10.67;;;;;18.41;100.00;101289.16;5088258;27;45690;-76
2023/08/14 01:08:07;;;;;;;;;14.33;11.33;;;;;18.42;100.00;101296.25;5083218;27;57043;-76
2023/08/14 01:11:08;;;;;;;;;11.33;9.00;;;;;18.42;100.00;101296.25;5074537;28;45392;-76
2023/08/14 01:13:46;;;;;;;;;11.00;9.33;;;;;18.36;100.00;101273.41;5079238;27;45310;-76
2023/08/14 01:16:18;;;;;;;;;13.50;11.00;;;;;18.42;100.00;101288.22;5082333;27;45310;-76
2023/08/14 01:18:46;;;;;;;;;18.00;11.67;;;;;18.39;100.00;101280.41;5063020;27;47335;-76
2023/08/14 01:21:15;;;;;;;;;12.33;11.00;;;;;18.43;100.00;101290.75;5081955;27;46940;-76
2023/08/14 01:24:00;;;;;;;;;12.67;12.67;;;;;18.38;100.00;101281.34;5098227;27;45430;-76
2023/08/14 01:26:27;;;;;;;;;8.67;8.33;;;;;18.41;100.00;101290.03;5088221;27;45543;-76
2023/08/14 01:28:54;;;;;;;;;11.00;11.00;;;;;18.37;100.00;101274.28;5086963;27;45335;-76
2023/08/14 01:31:19;;;;;;;;;8.33;8.33;;;;;18.44;100.00;101276.41;5064240;28;45321;-76
2023/08/14 01:33:45;;;;;;;;;10.33;10.33;;;;;18.48;100.00;101293.13;5080470;27;45516;-76
2023/08/14 01:36:28;;;;;;;;;9.67;9.33;;;;;18.48;100.00;101290.44;5076946;27;46130;-76
2023/08/14 01:39:07;;;;;;;;;13.33;12.00;;;;;18.48;100.00;101293.13;5079842;27;45505;-76
2023/08/14 01:41:39;;;;;;;;;11.33;11.33;;;;;18.44;100.00;101280.91;5086818;27;45411;-76
2023/08/14 01:44:07;;;;;;;;;12.33;9.67;;;;;18.46;100.00;101281.66;5073136;28;45530;-77
2023/08/14 01:46:34;;;;;;;;;9.00;9.00;;;;;18.45;100.00;101279.94;5093673;27;45383;-77
2023/08/14 01:49:02;;;;;;;;;9.00;9.00;;;;;18.53;100.00;101282.94;5080714;27;45772;-76
2023/08/14 01:51:28;;;;;;;;;11.00;11.00;;;;;18.51;100.00;101274.19;5079199;27;45482;-74
2023/08/14 01:53:54;;;;;;;;;15.00;12.67;;;;;18.59;100.00;101290.53;5080657;27;45252;-74
2023/08/14 01:56:20;;;;;;;;;11.33;8.33;;;;;18.59;100.00;101294.06;5084616;27;45253;-74
2023/08/14 01:58:45;;;;;;;;;11.67;10.33;;;;;18.55;100.00;101284.53;5077036;27;45411;-74
2023/08/14 02:01:10;;;;;;;;;11.67;9.33;;;;;18.62;100.00;101279.59;5067781;27;45614;-75
2023/08/14 02:03:36;;;;;;;;;9.33;8.00;;;;;18.60;100.00;101260.97;5084023;27;45218;-73
2023/08/14 02:06:01;;;;;;;;;11.00;11.00;;;;;18.55;100.00;101265.78;5091117;27;45221;-74
2023/08/14 02:08:26;;;;;;;;;11.67;10.00;;;;;18.60;100.00;101273.50;5081465;27;48218;-74
2023/08/14 02:10:52;;;;;;;;;12.00;8.33;;;;;18.62;100.00;101269.72;5068367;28;45489;-74
2023/08/14 02:13:17;;;;;;;;;11.33;9.67;;;;;18.59;100.00;101267.28;5083260;27;45264;-74
2023/08/14 02:15:46;;;;;;;;;13.33;11.00;;;;;18.57;100.00;101260.34;5083557;27;45256;-74
2023/08/14 02:18:13;;;;;;;;;8.33;6.67;;;;;18.56;100.00;101255.94;5068716;27;47536;-74
2023/08/14 02:20:46;;;;;;;;;10.00;8.67;;;;;18.58;100.00;101251.34;5084336;27;45457;-74
2023/08/14 02:23:11;;;;;;;;;9.00;8.33;;;;;18.55;100.00;101259.59;5081315;27;45439;-75
2023/08/14 02:25:43;;;;;;;;;8.33;8.33;;;;;18.55;100.00;101263.09;5086203;27;45407;-74
2023/08/14 02:28:08;;;;;;;;;14.33;10.67;;;;;18.47;100.00;101252.09;5086045;27;46369;-74
2023/08/14 02:30:38;;;;;;;;;8.00;7.00;;;;;18.52;100.00;101257.16;5084343;27;45424;-74
2023/08/14 02:33:04;;;;;;;;;9.67;8.33;;;;;18.43;100.00;101239.88;5084550;27;45394;-74
2023/08/14 02:35:29;;;;;;;;;12.00;9.67;;;;;18.48;100.00;101244.91;5090288;27;45526;-74
2023/08/14 02:37:54;;;;;;;;;12.00;10.67;;;;;18.46;100.00;101238.78;5072789;27;46303;-74
2023/08/14 02:40:20;;;;;;;;;14.67;12.67;;;;;18.44;100.00;101227.34;5089924;27;45355;-74
2023/08/14 02:42:45;;;;;;;;;10.33;9.00;;;;;18.38;100.00;101231.34;5073561;27;45410;-74
2023/08/14 02:45:11;;;;;;;;;7.67;7.67;;;;;18.41;100.00;101232.91;5081103;27;45266;-74
2023/08/14 02:47:36;;;;;;;;;10.33;10.33;;;;;18.37;100.00;101229.59;5081047;27;46606;-74
2023/08/14 02:50:01;;;;;;;;;11.33;9.33;;;;;18.30;100.00;101214.94;5070193;27;46207;-74
2023/08/14 02:52:27;;;;;;;;;12.67;8.33;;;;;18.34;100.00;101219.13;5079299;27;45311;-74
2023/08/14 02:54:52;;;;;;;;;9.00;8.00;;;;;18.34;100.00;101221.81;5086905;27;45304;-74
2023/08/14 02:57:17;;;;;;;;;10.67;9.00;;;;;18.36;100.00;101219.00;5076701;27;45379;-74
2023/08/14 02:59:43;;;;;;;;;9.67;9.00;;;;;18.34;100.00;101242.38;5078017;27;47141;-74
2023/08/14 03:02:08;;;;;;;;;11.00;9.67;;;;;18.29;100.00;101225.78;5084256;27;45481;-75
2023/08/14 03:04:33;;;;;;;;;11.00;11.00;;;;;18.27;100.00;101223.22;5068999;28;45547;-74
2023/08/14 03:06:59;;;;;;;;;12.00;9.67;;;;;18.30;100.00;101219.44;5097472;27;45389;-74
2023/08/14 03:09:24;;;;;;;;;14.00;11.00;;;;;18.20;100.00;101219.25;5081522;27;45476;-75
2023/08/14 03:11:49;;;;;;;;;8.33;7.00;;;;;18.21;100.00;101210.28;5080365;27;45427;-74
2023/08/14 03:14:15;;;;;;;;;11.67;8.33;;;;;18.25;100.00;101226.97;5098787;27;45328;-75
2023/08/14 03:16:40;;;;;;;;;12.67;11.33;;;;;18.23;100.00;101224.38;5086330;27;45327;-74
2023/08/14 03:19:05;;;;;;;;;11.67;8.67;;;;;18.05;100.00;101204.31;5082985;27;46430;-75
2023/08/14 03:21:30;;;;;;;;;8.67;7.00;;;;;18.15;100.00;101224.97;5079399;27;45363;-74
2023/08/14 03:23:56;;;;;;;;;9.33;8.67;;;;;18.12;100.00;101218.97;5085868;27;45520;-74
2023/08/14 03:26:21;;;;;;;;;11.33;10.67;;;;;18.06;100.00;101214.88;5084707;27;45374;-74
2023/08/14 03:28:46;;;;;;;;;13.00;8.33;;;;;18.13;100.00;101221.53;5081177;27;45500;-74
2023/08/14 03:31:13;;;;;;;;;12.33;8.67;;;;;18.06;100.00;101204.19;5077835;28;45382;-74
2023/08/14 03:33:38;;;;;;;;;8.33;8.33;;;;;18.12;100.00;101224.31;5079550;27;45379;-74
2023/08/14 03:36:04;;;;;;;;;8.67;8.33;;;;;18.11;100.00;101226.13;5065010;27;46014;-75
2023/08/14 03:38:30;;;;;;;;;7.33;7.00;;;;;18.01;100.00;101213.53;5080212;27;45311;-75
2023/08/14 03:40:56;;;;;;;;;7.00;6.33;;;;;18.08;100.00;101225.50;5098311;27;45248;-75
2023/08/14 03:43:21;;;;;;;;;9.00;9.00;;;;;18.01;100.00;101210.84;5075572;27;45480;-74
2023/08/14 03:45:46;;;;;;;;;6.33;4.00;;;;;18.01;100.00;101219.72;5085282;27;45272;-74
2023/08/14 03:48:12;;;;;;;;;8.67;8.67;;;;;17.96;100.00;101205.84;5068595;28;46111;-75
2023/08/14 03:50:37;;;;;;;;;5.00;5.00;;;;;17.99;100.00;101216.31;5078233;27;46285;-74
2023/08/14 03:53:03;;;;;;;;;7.00;7.00;;;;;17.94;100.00;101204.22;5078552;27;45620;-74
2023/08/14 03:55:28;;;;;;;;;7.00;7.00;;;;;17.84;100.00;101201.34;5068167;27;47254;-74
2023/08/14 03:57:56;;;;;;;;;11.33;7.00;;;;;17.93;100.00;101229.28;5085211;27;55018;-75
2023/08/14 04:00:21;;;;;;;;;5.67;5.67;;;;;17.90;100.00;101210.78;5067577;27;45363;-74
2023/08/14 04:02:47;;;;;;;;;10.67;7.00;;;;;17.84;100.00;101201.34;5086282;27;45349;-74
2023/08/14 04:05:12;;;;;;;;;11.00;7.67;;;;;17.81;100.00;101200.69;5074257;27;47454;-74
2023/08/14 04:07:38;;;;;;;;;9.67;7.00;;;;;17.79;100.00;101205.31;5100580;27;45461;-75
2023/08/14 04:10:03;;;;;;;;;9.00;9.00;;;;;17.81;100.00;101214.06;5092389;27;45248;-74
2023/08/14 04:12:29;;;;;;;;;9.67;8.00;;;;;17.73;100.00;101203.06;5088371;27;45320;-75
2023/08/14 04:14:54;;;;;;;;;8.33;8.33;;;;;17.68;100.00;101198.03;5089304;27;48421;-74
2023/08/14 04:17:19;;;;;;;;;9.00;7.67;;;;;17.70;100.00;101212.19;5084266;27;45194;-74
2023/08/14 04:19:45;;;;;;;;;5.33;5.33;;;;;17.72;100.00;101218.25;5073778;27;45331;-74
2023/08/14 04:22:10;;;;;;;;;8.33;7.00;;;;;17.70;100.00;101215.69;5087242;27;45453;-74
2023/08/14 04:24:35;;;;;;;;;12.33;10.33;;;;;17.56;100.00;101190.88;5082896;27;47011;-75
2023/08/14 04:27:01;;;;;;;;;9.67;8.33;;;;;17.62;100.00;101204.69;5086121;27;45271;-74
2023/08/14 04:29:26;;;;;;;;;9.00;8.67;;;;;17.64;100.00;101228.63;5107029;27;45310;-75
2023/08/14 04:31:51;;;;;;;;;10.00;8.33;;;;;17.61;100.00;101220.81;5094731;27;45443;-75
2023/08/14 04:34:17;;;;;;;;;8.33;8.33;;;;;17.53;100.00;101207.09;5084888;27;46072;-74
2023/08/14 04:36:43;;;;;;;;;8.67;8.33;;;;;17.46;100.00;101192.44;5084713;27;45234;-75
2023/08/14 04:39:08;;;;;;;;;9.33;7.33;;;;;17.49;100.00;101200.25;5080375;27;45764;-75
2023/08/14 04:41:33;;;;;;;;;11.33;9.33;;;;;17.53;100.00;101204.44;5084926;27;45466;-74
2023/08/14 04:43:59;;;;;;;;;8.33;7.00;;;;;17.48;100.00;101209.22;5094909;27;45340;-75
2023/08/14 04:46:30;;;;;;;;;7.67;7.00;;;;;17.50;100.00;101213.53;5070107;27;45379;-75
2023/08/14 04:48:56;;;;;;;;;10.67;9.00;;;;;17.47;100.00;101221.75;5090867;27;45415;-74
2023/08/14 04:51:21;;;;;;;;;7.67;7.67;;;;;17.39;100.00;101207.19;5080709;27;45234;-75
2023/08/14 04:53:46;;;;;;;;;6.00;6.00;;;;;17.45;100.00;101214.78;5086001;27;46575;-74
2023/08/14 04:56:12;;;;;;;;;8.67;8.67;;;;;17.45;100.00;101212.97;5087323;27;50852;-74
2023/08/14 04:58:37;;;;;;;;;7.67;7.00;;;;;17.47;100.00;101218.22;5081469;27;45314;-74
2023/08/14 05:01:03;;;;;;;;;7.67;7.33;;;;;17.42;100.00;101218.53;5082111;27;51428;-74
2023/08/14 05:03:28;;;;;;;;;7.00;6.33;;;;;17.32;100.00;101200.56;5089026;27;45378;-74
2023/08/14 05:05:53;;;;;;;;;7.33;5.00;;;;;17.42;100.00;101221.22;5085255;27;54318;-75
2023/08/14 05:08:19;;;;;;;;;6.00;6.00;;;;;17.43;100.00;101212.25;5089154;27;45376;-75
2023/08/14 05:10:49;;;;;;;;;11.33;7.00;;;;;17.37;100.00;101215.34;5079673;27;45376;-75
2023/08/14 05:13:15;;;;;;;;;6.00;6.00;;;;;17.41;100.00;101226.66;5101441;27;45422;-74
2023/08/14 05:15:40;;;;;;;;;7.00;6.00;;;;;17.37;100.00;101217.16;5080267;27;52685;-74
2023/08/14 05:18:05;;;;;;;;;8.00;6.00;;;;;17.37;100.00;101225.19;5097306;27;45439;-74
2023/08/14 05:20:33;;;;;;;;;8.00;7.33;;;;;17.37;100.00;101222.50;5088752;27;45404;-75
2023/08/14 05:22:58;;;;;;;;;8.00;7.67;;;;;17.31;100.00;101215.75;5083628;27;45413;-75
2023/08/14 05:25:24;;;;;;;;;7.00;6.00;;;;;17.39;100.00;101223.25;5074225;27;57846;-75
2023/08/14 05:27:49;;;;;;;;;6.33;6.33;;;;;17.36;100.00;101213.63;5100498;27;45279;-74
2023/08/14 05:30:14;;;;;;;;;9.00;7.33;;;;;17.36;100.00;101218.97;5096376;27;45437;-75
2023/08/14 05:32:41;;;;;;;;;11.33;8.67;;;;;17.36;100.00;101210.94;5096350;27;45445;-75
2023/08/14 05:35:07;;;;;;;;;10.33;8.33;;;;;17.32;100.00;101206.75;5065659;27;45533;-74
2023/08/14 05:37:32;;;;;;;;;11.33;10.67;;;;;17.37;100.00;101219.81;5089596;27;45469;-74
2023/08/14 05:39:57;;;;;;;;;6.00;6.00;;;;;17.31;100.00;101204.22;5080153;27;45462;-75
2023/08/14 05:42:22;;;;;;;;;7.33;6.33;;;;;17.34;100.00;101212.84;5081464;27;50657;-75
2023/08/14 05:44:48;;;;;;;;;7.00;7.00;;;;;17.39;100.00;101218.75;5083012;27;45299;-75
2023/08/14 05:47:13;;;;;;;;;6.33;6.33;;;;;17.33;100.00;101200.47;5084738;27;45256;-75
2023/08/14 05:49:38;;;;;;;;;8.33;8.00;;;;;17.35;100.00;101193.19;5085824;27;54586;-75
2023/08/14 05:52:04;;;;;;;;;10.33;8.00;;;;;17.42;100.00;101209.66;5083385;27;50750;-75
2023/08/14 05:54:29;;;;;;;;;11.67;7.67;;;;;17.43;100.00;101198.00;5075114;27;45376;-75
2023/08/14 05:56:54;;;;;;;;;11.33;9.33;;;;;17.47;100.00;101200.34;5087943;27;45260;-76
2023/08/14 05:59:19;;;;;;;;;7.00;6.33;;;;;17.49;100.00;101186.88;5080615;27;46787;-76
2023/08/14 06:01:45;;;;;;;;;12.00;7.67;;;;;17.53;100.00;101196.41;5087493;27;45990;-76
2023/08/14 06:04:11;;;;;;;;;5.67;5.67;;;;;17.54;100.00;101195.44;5084890;27;45701;-76
2023/08/14 06:06:36;;;;;;;;;6.33;6.33;;;;;17.60;100.00;101181.69;5087437;27;45359;-76
2023/08/14 06:09:02;;;;;;;;;12.00;8.33;;;;;17.71;100.00;101187.13;5086108;27;48802;-76
2023/08/14 06:11:27;;;;;;;;;8.67;8.67;;;;;17.80;100.00;101197.16;5080813;27;45337;-76
2023/08/14 06:13:52;;;;;;;;;8.33;7.33;;;;;17.88;100.00;101194.81;5092803;27;45490;-77
2023/08/14 06:16:18;;;;;;;;;8.33;7.00;;;;;17.97;100.00;101196.81;5080921;27;47950;-77
2023/08/14 06:18:43;;;;;;;;;9.00;8.00;;;;;17.99;100.00;101186.03;5093683;27;45305;-76
2023/08/14 06:21:08;;;;;;;;;11.33;8.33;;;;;18.12;100.00;101182.34;5082987;27;45460;-76
2023/08/14 06:23:34;;;;;;;;;7.67;7.00;;;;;18.22;100.00;101179.84;5081792;27;45944;-76
2023/08/14 06:25:59;;;;;;;;;7.67;6.00;;;;;18.38;100.00;101191.16;5067256;27;45308;-76
2023/08/14 06:28:24;;;;;;;;;10.67;8.67;;;;;18.50;100.00;101192.09;5076111;27;45572;-76
2023/08/14 06:30:50;;;;;;;;;10.67;9.00;;;;;18.46;100.00;101170.00;5082374;27;45419;-76
2023/08/14 06:33:15;;;;;;;;;10.00;6.67;;;;;18.71;100.00;101190.50;5079199;27;45410;-76
2023/08/14 06:35:40;;;;;;;;;7.00;6.33;;;;;18.70;100.00;101176.25;5082796;27;45373;-76
2023/08/14 06:38:06;;;;;;;;;5.67;5.33;;;;;18.81;100.00;101182.63;5080014;27;45454;-76
2023/08/14 06:40:31;;;;;;;;;10.00;6.67;;;;;18.91;100.00;101189.88;5082004;27;45515;-75
2023/08/14 06:42:57;;;;;;;;;8.00;6.67;;;;;18.97;100.00;101188.53;5088383;27;45399;-76
2023/08/14 06:45:22;;;;;;;;;10.67;9.33;;;;;19.05;100.00;101188.81;5087912;27;45820;-76
2023/08/14 06:47:47;;;;;;;;;10.00;6.00;;;;;19.25;100.00;101197.03;5092292;27;47126;-75
2023/08/14 06:50:13;;;;;;;;;9.00;6.67;;;;;19.45;100.00;101200.91;5087635;27;45971;-75
2023/08/14 06:52:39;;;;;;;;;8.67;8.67;;;;;19.56;100.00;101195.56;5093507;27;45350;-75
2023/08/14 06:55:04;;;;;;;;;8.67;7.67;;;;;19.69;100.00;101201.66;5063148;27;45312;-76
2023/08/14 06:57:30;;;;;;;;;7.00;6.00;;;;;19.88;100.00;101197.53;5080385;27;45360;-75
2023/08/14 06:59:55;;;;;;;;;11.33;7.00;;;;;19.95;99.83;101186.19;5077939;27;56231;-75
2023/08/14 07:02:20;;;;;;;;;6.67;6.33;;;;;20.14;98.32;101191.78;5083854;27;45469;-75
2023/08/14 07:04:46;;;;;;;;;6.00;6.00;;;;;20.25;92.70;101177.47;5079429;27;45350;-75
2023/08/14 07:07:11;;;;;;;;;3.00;3.00;;;;;20.47;95.99;101198.94;5079127;27;49784;-75
2023/08/14 07:09:36;;;;;;;;;4.00;4.00;;;;;20.62;93.87;101192.28;5089071;27;45755;-75
2023/08/14 07:12:02;;;;;;;;;3.00;3.00;;;;;20.81;95.02;101204.22;5076031;27;45394;-76
2023/08/14 07:14:28;;;;;;;;;5.00;4.00;;;;;20.90;91.36;101196.25;5079635;27;45298;-76
2023/08/14 07:16:53;;;;;;;;;3.67;3.00;;;;;20.91;88.84;101180.97;5080887;27;45253;-76
2023/08/14 07:19:18;;;;;;;;;4.33;2.00;;;;;21.13;84.69;101197.88;5080161;27;46182;-76
2023/08/14 07:21:44;;;;;;;;;2.00;2.00;;;;;20.93;83.29;101174.47;5081407;27;45617;-76
2023/08/14 07:24:12;;;;;;;;;2.67;2.33;;;;;21.00;82.93;101189.09;5066855;27;45347;-76
2023/08/14 07:26:38;;;;;;;;;4.67;3.00;;;;;21.05;85.84;101207.53;5083387;27;45697;-76
2023/08/14 07:29:03;;;;;;;;;4.00;2.00;;;;;21.02;84.82;101197.88;5089385;27;46986;-76
2023/08/14 07:31:29;;;;;;;;;5.00;4.00;;;;;21.08;84.31;101196.50;5082498;27;45277;-75
2023/08/14 07:33:54;;;;;;;;;7.00;3.00;;;;;21.31;84.15;101211.56;5081075;27;45657;-76
2023/08/14 07:36:20;;;;;;;;;4.33;3.33;;;;;21.35;84.23;101191.50;5091435;27;45382;-76
2023/08/14 07:38:45;;;;;;;;;1.00;1.00;;;;;21.58;80.34;101202.97;5081526;27;46124;-75
2023/08/14 07:41:10;;;;;;;;;3.00;3.00;;;;;21.82;80.16;101209.75;5074973;27;54546;-75
2023/08/14 07:43:36;;;;;;;;;3.33;2.33;;;;;21.93;76.42;101198.06;5081204;27;45391;-76
2023/08/14 07:46:01;;;;;;;;;3.33;2.33;;;;;22.09;75.51;101192.16;5079429;27;45392;-76
2023/08/14 07:48:26;;;;;;;;;3.00;3.00;;;;;22.25;76.43;101201.44;5091812;27;46184;-76
2023/08/14 07:50:53;;;;;;;;;4.00;3.00;;;;;22.42;77.36;101199.06;5072665;27;45343;-76
2023/08/14 07:53:18;;;;;;;;;2.67;2.67;;;;;22.48;76.03;101188.59;5095183;27;45245;-76
2023/08/14 07:55:43;;;;;;;;;2.00;0.67;;;;;22.75;75.12;101196.03;5079160;27;45292;-76
2023/08/14 07:58:09;;;;;;;;;3.67;2.00;;;;;22.80;74.58;101183.84;5078190;27;45461;-76
2023/08/14 08:00:35;;;;;;;;;4.00;3.00;;;;;23.07;74.91;101204.69;5079889;27;45344;-76
2023/08/14 08:03:00;;;;;;;;;1.00;1.00;;;;;23.16;70.93;101190.38;5071843;28;45342;-76
2023/08/14 08:05:26;;;;;;;;;2.00;1.33;;;;;23.32;70.37;101198.72;5081947;27;45591;-76
2023/08/14 08:07:51;;;;;;;;;1.33;1.33;;;;;23.53;70.15;101203.09;5093172;27;46116;-76
2023/08/14 08:10:16;;;;;;;;;6.67;3.00;;;;;23.59;68.52;101186.34;5099336;27;45506;-76
2023/08/14 08:12:42;;;;;;;;;3.00;2.00;;;;;23.76;69.01;101194.50;5095918;27;45828;-76
2023/08/14 08:15:07;;;;;;;;;2.67;2.33;;;;;23.84;66.44;101188.38;5076273;27;45430;-76
2023/08/14 08:17:33;;;;;;;;;3.33;2.67;;;;;23.94;65.15;101181.09;5086890;27;47467;-76
2023/08/14 08:19:58;;;;;;;;;3.00;3.00;;;;;24.14;65.82;101193.53;5077264;28;45369;-76
2023/08/14 08:22:24;;;;;;;;;6.00;1.67;;;;;24.31;65.01;101181.91;5086810;27;45431;-76
2023/08/14 08:24:49;;;;;;;;;4.00;3.00;;;;;24.42;64.24;101178.13;5088922;27;45373;-76
2023/08/14 08:27:14;;;;;;;;;4.00;2.67;;;;;24.46;63.62;101174.13;5079029;27;45586;-76
2023/08/14 08:29:40;;;;;;;;;3.33;1.67;;;;;24.66;65.40;101183.81;5079674;27;45646;-76
2023/08/14 08:32:05;;;;;;;;;2.00;2.00;;;;;24.68;63.73;101162.00;5066376;28;45502;-76
2023/08/14 08:34:32;;;;;;;;;1.00;1.00;;;;;24.74;64.67;101191.13;5084868;27;45477;-76
2023/08/14 08:36:57;;;;;;;;;3.33;2.33;;;;;24.69;61.96;101166.41;5064193;27;45362;-76
2023/08/14 08:39:22;;;;;;;;;3.00;1.00;;;;;24.74;63.47;101159.53;5089618;27;50778;-76
2023/08/14 08:41:48;;;;;;;;;4.67;2.33;;;;;24.79;61.82;101142.84;5086122;27;45531;-77
2023/08/14 08:44:25;;;;;;;;;4.00;2.00;;;;;25.08;61.54;101169.66;5090290;27;45435;-76
2023/08/14 08:46:52;;;;;;;;;2.00;1.00;;;;;25.21;64.24;101157.44;5081681;27;45422;-76
2023/08/14 08:49:18;;;;;;;;;3.00;3.00;;;;;25.31;61.35;101177.13;5093403;27;45367;-76
2023/08/14 08:51:45;;;;;;;;;2.00;1.00;;;;;25.26;61.35;101176.75;5083251;27;45386;-76
2023/08/14 08:54:14;;;;;;;;;2.67;1.67;;;;;25.31;61.87;101166.31;5081624;27;45456;-77
2023/08/14 08:56:40;;;;;;;;;1.67;1.33;;;;;25.45;63.03;101166.75;5094599;27;46159;-76
2023/08/14 08:59:05;;;;;;;;;2.00;2.00;;;;;25.45;61.55;101142.34;5082005;27;45379;-77
2023/08/14 09:01:31;;;;;;;;;4.00;3.33;;;;;25.51;59.58;101139.91;5099449;27;45481;-76
2023/08/14 09:03:56;;;;;;;;;3.00;2.00;;;;;25.73;60.19;101169.13;5091624;27;45399;-76
2023/08/14 09:06:22;;;;;;;;;9.00;3.00;;;;;25.83;58.88;101163.59;5077262;27;46322;-76
2023/08/14 09:08:47;;;;;;;;;1.33;1.33;;;;;25.87;58.64;101167.69;5082294;27;45297;-76
2023/08/14 09:11:13;;;;;;;;;1.67;1.67;;;;;25.92;58.93;101147.22;5082184;27;45513;-77
2023/08/14 09:13:38;;;;;;;;;3.33;2.33;;;;;26.00;57.10;101143.69;5087422;27;45347;-76
2023/08/14 09:16:03;;;;;;;;;1.67;1.67;;;;;26.16;59.40;101142.88;5088127;27;45491;-76
2023/08/14 09:18:32;;;;;;;;;1.00;1.00;;;;;26.31;60.40;101143.97;5096897;27;45318;-77
2023/08/14 09:20:57;;;;;;;;;2.67;1.33;;;;;26.36;57.57;101131.63;5083882;27;45359;-77
2023/08/14 09:23:23;;;;;;;;;4.00;2.33;;;;;26.56;59.64;101136.75;5095533;27;45423;-77
2023/08/14 09:25:50;;;;;;;;;6.33;3.67;;;;;26.64;58.41;101125.88;5089392;27;45455;-76
2023/08/14 09:28:17;;;;;;;;;2.67;2.33;;;;;26.72;56.34;101126.75;5097589;27;45345;-76
2023/08/14 09:30:43;;;;;;;;;3.00;2.00;;;;;26.77;58.37;101128.94;5095336;27;45793;-77
2023/08/14 09:33:11;;;;;;;;;2.00;2.00;;;;;26.86;56.69;101130.72;5100358;27;45346;-76
2023/08/14 09:35:38;;;;;;;;;3.33;1.67;;;;;26.92;57.64;101121.88;5072109;28;45342;-77
2023/08/14 09:38:04;;;;;;;;;4.00;2.67;;;;;26.98;56.74;101114.91;5082012;27;45332;-76
2023/08/14 09:40:30;;;;;;;;;3.00;2.00;;;;;27.15;56.55;101131.03;5081958;27;45324;-77
2023/08/14 09:42:56;;;;;;;;;2.33;2.00;;;;;27.15;57.07;101125.59;5080667;27;45426;-77
2023/08/14 09:45:27;;;;;;;;;3.67;3.00;;;;;27.28;57.09;101134.06;5080153;27;45408;-76
2023/08/14 09:48:00;;;;;;;;;3.00;2.00;;;;;27.38;59.25;101118.44;5062190;28;45346;-76
2023/08/14 09:50:29;;;;;;;;;3.00;1.00;;;;;27.48;57.01;101139.16;5087532;27;45283;-77
2023/08/14 09:52:59;;;;;;;;;3.33;3.00;;;;;27.57;57.03;101113.66;5101047;27;45352;-77
2023/08/14 09:55:28;;;;;;;;;4.00;3.00;;;;;27.51;55.76;101125.22;5075797;28;46148;-77
2023/08/14 09:57:57;;;;;;;;;3.33;3.00;;;;;27.34;57.54;101118.94;5080161;27;45300;-77
2023/08/14 10:00:28;;;;;;;;;3.33;1.33;;;;;27.30;57.50;101114.88;5080662;27;45336;-77
2023/08/14 10:02:55;;;;;;;;;3.00;1.67;;;;;27.15;58.24;101108.44;5079012;28;45470;-77
2023/08/14 10:05:21;;;;;;;;;4.67;3.00;;;;;27.18;58.25;101110.81;5080489;27;46576;-77
2023/08/14 10:07:47;;;;;;;;;3.00;3.00;;;;;27.20;60.41;101106.06;5080039;27;45404;-77
2023/08/14 10:10:14;;;;;;;;;2.00;2.00;;;;;27.23;57.45;101101.13;5084604;27;45296;-76
2023/08/14 10:12:49;;;;;;;;;4.00;2.00;;;;;27.22;58.67;101087.75;5090038;27;45453;-76
2023/08/14 10:15:21;;;;;;;;;3.00;2.00;;;;;27.48;57.67;101099.25;5075412;28;47841;-77
2023/08/14 10:17:56;;;;;;;;;3.33;3.00;;;;;27.69;56.48;101099.50;5080076;27;45453;-77
2023/08/14 10:20:22;;;;;;;;;8.00;3.00;;;;;27.80;56.81;101096.41;5085408;27;45324;-76
2023/08/14 10:22:49;;;;;;;;;4.00;3.00;;;;;27.95;56.50;101093.78;5085824;27;45335;-77
2023/08/14 10:25:15;;;;;;;;;3.67;3.00;;;;;28.00;55.61;101095.97;5075542;28;45832;-77
2023/08/14 10:27:42;;;;;;;;;6.33;2.67;;;;;28.17;56.99;101101.19;5061614;28;45357;-76
2023/08/14 10:30:09;;;;;;;;;5.67;2.67;;;;;28.31;57.02;101096.81;5079730;27;45438;-77
2023/08/14 10:32:35;;;;;;;;;2.67;2.67;;;;;28.52;54.95;101091.59;5078372;27;45414;-77
2023/08/14 10:35:01;;;;;;;;;2.00;2.00;;;;;28.63;56.17;101085.69;5078253;27;45712;-77
2023/08/14 10:37:28;;;;;;;;;3.33;3.33;;;;;28.79;55.77;101087.50;5083820;27;45434;-77
2023/08/14 10:40:13;;;;;;;;;2.33;2.33;;;;;28.81;55.23;101085.44;5063544;27;45427;-77
2023/08/14 10:42:56;;;;;;;;;3.00;3.00;;;;;28.85;56.22;101073.16;5090737;27;45482;-77
2023/08/14 10:45:23;;;;;;;;;4.33;3.33;;;;;28.93;54.59;101065.72;5078384;28;45479;-77
2023/08/14 10:47:50;;;;;;;;;4.00;1.00;;;;;29.15;56.43;101074.91;5080347;27;45494;-77
2023/08/14 10:50:22;;;;;;;;;2.33;2.33;;;;;29.36;56.71;101066.00;5079789;27;45286;-77
2023/08/14 10:52:50;;;;;;;;;3.00;2.00;;;;;29.55;54.34;101075.50;5083180;27;45368;-77
2023/08/14 10:55:22;;;;;;;;;3.00;2.00;;;;;29.59;52.88;101087.72;5079833;28;46527;-77
2023/08/14 10:57:47;;;;;;;;;3.00;3.00;;;;;29.60;52.10;101073.91;5080301;27;45351;-77
2023/08/14 11:00:21;;;;;;;;;2.33;2.33;;;;;29.59;52.98;101065.91;5100281;27;45534;-77
2023/08/14 11:02:52;;;;;;;;;2.67;2.00;;;;;29.69;51.48;101066.44;5083469;27;45419;-77
2023/08/14 11:05:18;;;;;;;;;3.00;3.00;;;;;29.75;52.93;101062.97;5081447;27;45391;-77
2023/08/14 11:07:57;;;;;;;;;5.00;3.00;;;;;30.05;51.86;101067.34;5080964;27;45294;-77
2023/08/14 11:10:25;;;;;;;;;4.00;2.00;;;;;30.27;54.07;101060.03;5079877;27;45379;-77
2023/08/14 11:12:51;;;;;;;;;2.00;2.00;;;;;30.54;51.07;101077.56;5077425;28;45437;-77